Time;durP1;ratioP1;P1;durP2;ratioP2;P2;SDS_P1;SDS_P2;PMS_P1;PMS_P2;Temp;Humidity;BMP_temperature;BMP_pressure;BME280_temperature;BME280_humidity;BME280_pressure;Samples;Min_cycle;Max_cycle;Signal;HPM_P1;HPM_P2
2023/09/24 00:01:50;;;;;;;;;;;12.20;99.90;;;;;;6850769;19;21204;-76
2023/09/24 00:04:22;;;;;;;;;;;12.10;99.90;;;;;;6858873;19;20677;-74
2023/09/24 00:06:55;;;;;;;;;;;12.10;99.90;;;;;;6854858;19;21475;-76
2023/09/24 00:09:28;;;;;;;;;;;12.10;99.90;;;;;;6856762;19;20437;-76
2023/09/24 00:12:01;;;;;;;;;;;12.10;99.90;;;;;;6858783;19;19922;-74
2023/09/24 00:14:34;;;;;;;;;;;12.20;99.90;;;;;;6851238;19;20875;-75
2023/09/24 00:17:08;;;;;;;;;;;12.10;99.90;;;;;;6851832;19;19986;-75
2023/09/24 00:19:40;;;;;;;;;;;12.00;99.90;;;;;;6858256;19;21170;-74
2023/09/24 00:22:12;;;;;;;;;;;12.00;99.90;;;;;;6855655;19;20753;-76
2023/09/24 00:24:46;;;;;;;;;;;12.00;99.90;;;;;;6843628;19;20007;-76
2023/09/24 00:27:19;;;;;;;;;;;12.10;99.90;;;;;;6853114;19;20941;-75
2023/09/24 00:29:51;;;;;;;;;;;12.10;99.90;;;;;;6858299;19;19918;-76
2023/09/24 00:32:24;;;;;;;;;;;12.10;99.90;;;;;;6967139;19;20013;-77
2023/09/24 00:34:56;;;;;;;;;;;12.20;99.90;;;;;;7592655;19;19914;-77
2023/09/24 00:37:28;;;;;;;;;;;12.10;99.90;;;;;;7521218;19;20559;-76
2023/09/24 00:40:03;;;;;;;;;;;12.10;99.90;;;;;;6851091;19;20913;-73
2023/09/24 00:42:37;;;;;;;;;;;12.10;99.90;;;;;;6861010;19;21281;-74
2023/09/24 00:45:14;;;;;;;;;;;12.10;99.90;;;;;;6848756;19;20591;-74
2023/09/24 00:47:47;;;;;;;;;;;12.10;99.90;;;;;;6847783;19;21225;-75
2023/09/24 00:50:20;;;;;;;;;;;12.00;99.90;;;;;;6862243;19;21097;-73
2023/09/24 00:52:54;;;;;;;;;;;12.00;99.90;;;;;;6860454;19;20584;-73
2023/09/24 00:55:27;;;;;;;;;;;11.90;99.90;;;;;;6852077;19;20889;-74
2023/09/24 00:58:01;;;;;;;;;;;12.00;99.90;;;;;;6856582;19;21093;-75
2023/09/24 01:00:34;;;;;;;;;;;12.00;99.90;;;;;;6861747;19;20701;-74
2023/09/24 01:03:09;;;;;;;;;;;12.00;99.90;;;;;;6857191;19;21179;-73
2023/09/24 01:05:42;;;;;;;;;;;12.10;99.90;;;;;;6849208;19;20697;-73
2023/09/24 01:08:17;;;;;;;;;;;12.10;99.90;;;;;;6854940;19;20664;-73
2023/09/24 01:10:49;;;;;;;;;;;12.10;99.90;;;;;;6854700;19;21155;-74
2023/09/24 01:13:23;;;;;;;;;;;11.90;99.90;;;;;;6845733;19;21330;-74
2023/09/24 01:15:55;;;;;;;;;;;11.90;99.90;;;;;;6864196;19;20713;-74
2023/09/24 01:18:27;;;;;;;;;;;11.90;99.90;;;;;;6856249;19;20663;-75
2023/09/24 01:21:00;;;;;;;;;;;11.90;99.90;;;;;;6852340;19;21331;-72
2023/09/24 01:23:35;;;;;;;;;;;11.90;99.90;;;;;;6867322;19;20684;-74
2023/09/24 01:26:11;;;;;;;;;;;11.90;99.90;;;;;;6852797;19;20496;-76
2023/09/24 01:28:44;;;;;;;;;;;11.90;99.90;;;;;;6845929;19;20956;-74
2023/09/24 01:31:18;;;;;;;;;;;12.00;99.90;;;;;;6843362;19;20669;-71
2023/09/24 01:33:51;;;;;;;;;;;12.00;99.90;;;;;;6842878;19;21428;-73
2023/09/24 01:36:24;;;;;;;;;;;12.10;99.90;;;;;;6845306;19;20751;-74
2023/09/24 01:38:56;;;;;;;;;;;12.00;99.90;;;;;;6850200;19;21047;-74
2023/09/24 01:41:31;;;;;;;;;;;12.00;99.90;;;;;;6853696;19;21213;-75
2023/09/24 01:44:04;;;;;;;;;;;11.90;99.90;;;;;;6854279;19;21084;-75
2023/09/24 01:46:38;;;;;;;;;;;11.90;99.90;;;;;;6849373;19;19934;-76
2023/09/24 01:49:10;;;;;;;;;;;11.90;99.90;;;;;;6846105;19;20942;-76
2023/09/24 01:51:44;;;;;;;;;;;11.90;99.90;;;;;;6852660;19;20998;-75
2023/09/24 01:54:17;;;;;;;;;;;11.90;99.90;;;;;;6848367;19;21256;-74
2023/09/24 01:56:49;;;;;;;;;;;11.90;99.90;;;;;;6839239;19;20941;-74
2023/09/24 01:59:22;;;;;;;;;;;11.90;99.90;;;;;;6851281;19;20878;-74
2023/09/24 02:01:55;;;;;;;;;;;11.90;99.90;;;;;;6857055;19;20849;-73
2023/09/24 02:04:27;;;;;;;;;;;11.80;99.90;;;;;;6850794;19;21011;-74
2023/09/24 02:07:01;;;;;;;;;;;12.00;99.90;;;;;;6851726;19;20526;-73
2023/09/24 02:09:35;;;;;;;;;;;12.00;99.90;;;;;;6849172;19;21526;-71
2023/09/24 02:12:09;;;;;;;;;;;12.00;99.90;;;;;;6854044;19;21193;-73
2023/09/24 02:14:41;;;;;;;;;;;12.00;99.90;;;;;;6851582;19;20572;-74
2023/09/24 02:17:13;;;;;;;;;;;12.00;99.90;;;;;;6856510;19;21023;-73
2023/09/24 02:19:46;;;;;;;;;;;11.90;99.90;;;;;;6848243;19;21331;-73
2023/09/24 02:22:19;;;;;;;;;;;11.70;99.90;;;;;;6847038;19;20446;-76
2023/09/24 02:24:52;;;;;;;;;;;11.70;99.90;;;;;;6852069;19;21316;-73
2023/09/24 02:27:25;;;;;;;;;;;11.80;99.90;;;;;;7028543;19;19945;-76
2023/09/24 02:29:57;;;;;;;;;;;11.80;99.90;;;;;;7588165;19;19918;-76
2023/09/24 02:32:30;;;;;;;;;;;11.80;99.90;;;;;;7577854;19;19918;-75
2023/09/24 02:35:02;;;;;;;;;;;11.80;99.90;;;;;;7583147;19;19914;-76
2023/09/24 02:37:35;;;;;;;;;;;11.80;99.90;;;;;;7586814;19;20409;-76
2023/09/24 02:40:10;;;;;;;;;;;11.80;99.90;;;;;;7590300;19;20378;-76
2023/09/24 02:42:44;;;;;;;;;;;11.70;99.90;;;;;;7570490;19;19921;-76
2023/09/24 02:45:17;;;;;;;;;;;11.60;99.90;;;;;;7574989;19;20528;-75
2023/09/24 02:47:49;;;;;;;;;;;11.60;99.90;;;;;;7599869;19;19918;-76
2023/09/24 02:50:24;;;;;;;;;;;11.50;99.90;;;;;;7580196;19;19914;-75
2023/09/24 02:52:58;;;;;;;;;;;11.40;99.90;;;;;;7590632;19;19974;-77
2023/09/24 02:55:31;;;;;;;;;;;11.30;99.90;;;;;;7585384;19;19922;-75
2023/09/24 02:58:04;;;;;;;;;;;11.30;99.90;;;;;;7589765;19;19922;-75
2023/09/24 03:03:15;;;;;;;;;;;11.20;99.90;;;;;;7585755;19;20787;-75
2023/09/24 03:05:48;;;;;;;;;;;11.20;99.90;;;;;;7578222;19;19941;-75
2023/09/24 03:08:21;;;;;;;;;;;11.10;99.90;;;;;;7567344;19;19948;-75
2023/09/24 03:10:53;;;;;;;;;;;11.10;99.90;;;;;;7589007;19;19990;-76
2023/09/24 03:13:26;;;;;;;;;;;11.00;99.90;;;;;;7583751;19;20494;-74
2023/09/24 03:15:58;;;;;;;;;;;11.00;99.90;;;;;;7587947;19;20590;-76
2023/09/24 03:18:30;;;;;;;;;;;10.90;99.90;;;;;;7573161;19;19922;-74
2023/09/24 03:21:06;;;;;;;;;;;10.90;99.90;;;;;;7591488;19;19922;-75
2023/09/24 03:23:38;;;;;;;;;;;10.80;99.90;;;;;;7572502;19;20454;-75
2023/09/24 03:26:14;;;;;;;;;;;10.70;99.90;;;;;;7583441;19;19926;-77
2023/09/24 03:28:48;;;;;;;;;;;10.60;99.90;;;;;;7585542;19;21079;-76
2023/09/24 03:31:21;;;;;;;;;;;10.50;99.90;;;;;;7568752;19;20775;-75
2023/09/24 03:33:53;;;;;;;;;;;10.50;99.90;;;;;;7573098;19;19944;-77
2023/09/24 03:36:26;;;;;;;;;;;10.40;99.90;;;;;;7575227;19;19926;-75
2023/09/24 03:38:59;;;;;;;;;;;10.40;99.90;;;;;;7590546;19;20803;-75
2023/09/24 03:41:31;;;;;;;;;;;10.40;99.90;;;;;;7559745;19;19923;-76
2023/09/24 03:44:04;;;;;;;;;;;10.30;99.90;;;;;;7577091;19;19926;-78
2023/09/24 03:46:36;;;;;;;;;;;10.20;99.90;;;;;;7581158;19;19922;-78
2023/09/24 03:49:08;;;;;;;;;;;10.30;99.90;;;;;;7593572;19;19978;-76
2023/09/24 03:51:41;;;;;;;;;;;10.30;99.90;;;;;;7588141;19;20009;-77
2023/09/24 03:54:14;;;;;;;;;;;10.20;99.90;;;;;;7589341;19;19919;-77
2023/09/24 03:56:46;;;;;;;;;;;10.00;99.90;;;;;;7593024;19;19952;-76
2023/09/24 03:59:18;;;;;;;;;;;9.90;99.90;;;;;;7594316;19;19922;-77
2023/09/24 04:01:50;;;;;;;;;;;9.80;99.90;;;;;;7589673;19;19918;-77
2023/09/24 04:04:22;;;;;;;;;;;9.90;99.90;;;;;;7583955;19;19939;-76
2023/09/24 04:06:55;;;;;;;;;;;9.90;99.90;;;;;;7579530;19;20316;-76
2023/09/24 04:09:27;;;;;;;;;;;9.90;99.90;;;;;;7586005;19;20796;-76
2023/09/24 04:12:00;;;;;;;;;;;9.90;99.90;;;;;;7172373;19;21322;-75
2023/09/24 04:14:32;;;;;;;;;;;9.80;99.90;;;;;;6881146;19;21438;-73
2023/09/24 04:17:09;;;;;;;;;;;9.90;99.90;;;;;;6864815;19;21421;-73
2023/09/24 04:19:41;;;;;;;;;;;9.80;99.90;;;;;;6881116;19;20494;-74
2023/09/24 04:22:16;;;;;;;;;;;9.70;99.90;;;;;;6870742;19;20640;-77
2023/09/24 04:24:53;;;;;;;;;;;9.70;99.90;;;;;;6871374;19;20384;-76
2023/09/24 04:27:26;;;;;;;;;;;9.60;99.90;;;;;;6867059;19;20642;-77
2023/09/24 04:29:58;;;;;;;;;;;9.60;99.90;;;;;;7419848;19;19918;-78
2023/09/24 04:32:31;;;;;;;;;;;9.50;99.90;;;;;;7594845;19;19950;-77
2023/09/24 04:35:03;;;;;;;;;;;9.50;99.90;;;;;;7580356;19;20942;-77
2023/09/24 04:37:36;;;;;;;;;;;9.60;99.90;;;;;;7594332;19;19914;-77
2023/09/24 04:40:14;;;;;;;;;;;9.60;99.90;;;;;;7593500;19;21099;-77
2023/09/24 04:42:49;;;;;;;;;;;9.50;99.90;;;;;;7594478;19;19919;-77
2023/09/24 04:45:22;;;;;;;;;;;9.50;99.90;;;;;;7577867;19;20135;-75
2023/09/24 04:47:55;;;;;;;;;;;9.40;99.90;;;;;;7576805;19;20018;-75
2023/09/24 04:50:27;;;;;;;;;;;9.30;99.90;;;;;;7585428;19;20498;-75
2023/09/24 04:52:59;;;;;;;;;;;9.20;99.90;;;;;;7589129;19;19934;-75
2023/09/24 04:55:32;;;;;;;;;;;9.30;99.90;;;;;;7588222;19;19930;-77
2023/09/24 04:58:06;;;;;;;;;;;9.30;99.90;;;;;;7594511;19;19914;-78
2023/09/24 05:00:38;;;;;;;;;;;9.30;99.90;;;;;;7587107;19;19929;-75
2023/09/24 05:03:10;;;;;;;;;;;9.40;99.90;;;;;;7592161;19;20345;-76
2023/09/24 05:05:42;;;;;;;;;;;9.30;99.90;;;;;;7589393;19;20791;-76
2023/09/24 05:08:15;;;;;;;;;;;9.20;99.90;;;;;;6855394;19;20659;-74
2023/09/24 05:10:49;;;;;;;;;;;9.10;99.90;;;;;;6867510;19;20965;-75
2023/09/24 05:13:23;;;;;;;;;;;9.10;99.90;;;;;;6870628;19;21597;-75
2023/09/24 05:15:59;;;;;;;;;;;9.10;99.90;;;;;;6876105;19;19915;-75
2023/09/24 05:18:33;;;;;;;;;;;9.10;99.90;;;;;;6865076;19;22016;-77
2023/09/24 05:21:13;;;;;;;;;;;9.10;99.90;;;;;;6871443;19;21144;-72
2023/09/24 05:23:46;;;;;;;;;;;9.10;99.90;;;;;;6882891;19;20940;-76
2023/09/24 05:26:19;;;;;;;;;;;9.10;99.90;;;;;;6871889;19;21069;-77
2023/09/24 05:28:51;;;;;;;;;;;9.30;99.90;;;;;;6870378;19;19935;-76
2023/09/24 05:31:24;;;;;;;;;;;9.40;99.90;;;;;;6873152;19;20793;-74
2023/09/24 05:33:56;;;;;;;;;;;9.40;99.90;;;;;;6865871;19;20717;-77
2023/09/24 05:36:29;;;;;;;;;;;9.30;99.90;;;;;;6882132;19;21227;-75
2023/09/24 05:39:05;;;;;;;;;;;9.50;99.90;;;;;;6864122;19;20422;-77
2023/09/24 05:41:37;;;;;;;;;;;9.50;99.90;;;;;;6877783;19;20995;-74
2023/09/24 05:44:10;;;;;;;;;;;9.40;99.90;;;;;;6880062;19;20521;-73
2023/09/24 05:46:42;;;;;;;;;;;9.50;99.90;;;;;;6872569;19;19922;-76
2023/09/24 05:49:16;;;;;;;;;;;9.50;99.90;;;;;;6869203;19;20904;-76
2023/09/24 05:51:49;;;;;;;;;;;9.60;99.90;;;;;;6859794;19;19915;-75
2023/09/24 05:54:21;;;;;;;;;;;9.50;99.90;;;;;;6882954;19;21813;-75
2023/09/24 05:56:53;;;;;;;;;;;9.60;99.90;;;;;;6861425;19;21331;-75
2023/09/24 05:59:26;;;;;;;;;;;9.60;99.90;;;;;;6884366;19;20445;-74
2023/09/24 06:01:59;;;;;;;;;;;9.60;99.90;;;;;;6871435;19;20622;-74
2023/09/24 06:04:31;;;;;;;;;;;9.70;99.90;;;;;;6872035;19;20361;-76
2023/09/24 06:07:05;;;;;;;;;;;9.70;99.90;;;;;;6861930;19;21573;-74
2023/09/24 06:09:38;;;;;;;;;;;9.70;99.90;;;;;;6865723;19;20229;-75
2023/09/24 06:12:10;;;;;;;;;;;9.70;99.90;;;;;;6873154;19;19922;-75
2023/09/24 06:14:43;;;;;;;;;;;9.80;99.90;;;;;;6865398;19;20775;-77
2023/09/24 06:17:16;;;;;;;;;;;9.90;99.90;;;;;;6872196;19;20894;-74
2023/09/24 06:19:49;;;;;;;;;;;9.90;99.90;;;;;;6877273;19;20454;-74
2023/09/24 06:22:23;;;;;;;;;;;10.00;99.90;;;;;;6869753;19;20447;-75
2023/09/24 06:24:55;;;;;;;;;;;9.90;99.90;;;;;;7476590;19;19923;-78
2023/09/24 06:27:27;;;;;;;;;;;10.10;99.90;;;;;;7593909;19;20385;-76
2023/09/24 06:29:59;;;;;;;;;;;10.20;99.90;;;;;;7597691;19;19910;-76
2023/09/24 06:32:32;;;;;;;;;;;10.30;99.90;;;;;;7597029;19;20563;-76
2023/09/24 06:35:04;;;;;;;;;;;10.40;99.90;;;;;;7600144;19;19942;-75
2023/09/24 06:37:36;;;;;;;;;;;10.50;99.90;;;;;;7597991;19;19926;-76
2023/09/24 06:40:09;;;;;;;;;;;10.60;99.90;;;;;;7603738;19;19952;-77
2023/09/24 06:42:42;;;;;;;;;;;10.80;99.90;;;;;;7588543;19;19929;-76
2023/09/24 06:45:15;;;;;;;;;;;10.90;99.90;;;;;;7589593;19;19942;-77
2023/09/24 06:47:47;;;;;;;;;;;11.00;99.90;;;;;;7593671;19;20388;-77
2023/09/24 06:50:19;;;;;;;;;;;11.10;99.90;;;;;;7588288;19;20878;-76
2023/09/24 06:52:51;;;;;;;;;;;11.20;99.90;;;;;;7596738;19;20770;-75
2023/09/24 06:55:23;;;;;;;;;;;11.30;99.90;;;;;;7592408;19;20274;-75
2023/09/24 06:57:56;;;;;;;;;;;11.30;99.90;;;;;;7586447;19;19919;-76
2023/09/24 07:00:28;;;;;;;;;;;11.40;99.90;;;;;;7582366;19;19929;-76
2023/09/24 07:03:00;;;;;;;;;;;11.50;99.90;;;;;;7612592;19;19919;-76
2023/09/24 07:05:32;;;;;;;;;;;11.60;99.90;;;;;;7563583;19;19926;-75
2023/09/24 07:08:05;;;;;;;;;;;11.60;99.90;;;;;;7586901;19;19923;-79
2023/09/24 07:10:37;;;;;;;;;;;11.80;99.90;;;;;;7576174;19;20875;-77
2023/09/24 07:13:09;;;;;;;;;;;11.90;99.90;;;;;;7561365;19;20458;-78
2023/09/24 07:15:42;;;;;;;;;;;11.90;99.90;;;;;;7568132;19;21181;-76
2023/09/24 07:18:14;;;;;;;;;;;12.00;99.90;;;;;;7561642;19;20947;-76
2023/09/24 07:20:47;;;;;;;;;;;12.00;99.90;;;;;;7566759;19;20749;-76
2023/09/24 07:23:20;;;;;;;;;;;12.10;99.90;;;;;;7552787;19;21407;-76
2023/09/24 07:25:52;;;;;;;;;;;12.20;99.90;;;;;;7567443;19;20258;-76
2023/09/24 07:28:25;;;;;;;;;;;12.30;99.90;;;;;;7564035;19;20752;-75
2023/09/24 07:30:57;;;;;;;;;;;12.40;99.90;;;;;;7567443;19;19914;-76
2023/09/24 07:33:29;;;;;;;;;;;12.60;99.90;;;;;;7559966;19;19919;-76
2023/09/24 07:36:02;;;;;;;;;;;12.80;99.90;;;;;;7566473;19;19926;-74
2023/09/24 07:38:44;;;;;;;;;;;12.90;99.90;;;;;;7575171;19;19927;-75
2023/09/24 07:41:17;;;;;;;;;;;12.90;99.90;;;;;;7560460;19;20978;-76
2023/09/24 07:43:49;;;;;;;;;;;13.10;99.90;;;;;;7566049;19;19940;-77
2023/09/24 07:46:21;;;;;;;;;;;13.10;99.90;;;;;;7565068;19;19918;-76
2023/09/24 07:48:53;;;;;;;;;;;13.20;99.90;;;;;;7570414;19;19923;-76
2023/09/24 07:51:26;;;;;;;;;;;13.30;99.90;;;;;;7559225;19;20786;-77
2023/09/24 07:54:00;;;;;;;;;;;13.30;99.90;;;;;;7582461;19;19923;-76
2023/09/24 07:56:32;;;;;;;;;;;13.30;99.90;;;;;;7553211;19;19972;-76
2023/09/24 07:59:04;;;;;;;;;;;13.30;99.90;;;;;;7552566;19;20443;-76
2023/09/24 08:01:37;;;;;;;;;;;13.30;99.90;;;;;;7533631;19;20522;-76
2023/09/24 08:04:09;;;;;;;;;;;13.40;99.90;;;;;;7558145;19;19918;-77
2023/09/24 08:06:42;;;;;;;;;;;13.50;99.90;;;;;;7560803;19;19934;-77
2023/09/24 08:09:15;;;;;;;;;;;13.50;99.90;;;;;;7575461;19;19959;-77
2023/09/24 08:11:57;;;;;;;;;;;13.60;99.90;;;;;;7583193;19;19919;-78
2023/09/24 08:14:30;;;;;;;;;;;13.70;99.90;;;;;;7567816;19;19929;-75
2023/09/24 08:17:03;;;;;;;;;;;13.70;99.90;;;;;;7570432;19;19951;-76
2023/09/24 08:19:35;;;;;;;;;;;13.90;99.90;;;;;;7563705;19;19926;-77
2023/09/24 08:22:07;;;;;;;;;;;14.10;99.90;;;;;;7572822;19;20913;-76
2023/09/24 08:24:40;;;;;;;;;;;14.10;99.90;;;;;;7583584;19;20142;-76
2023/09/24 08:27:12;;;;;;;;;;;14.20;99.90;;;;;;7581604;19;19933;-75
2023/09/24 08:29:45;;;;;;;;;;;14.10;99.90;;;;;;7575733;19;20478;-76
2023/09/24 08:32:17;;;;;;;;;;;14.10;99.90;;;;;;7582799;19;19926;-74
2023/09/24 08:34:49;;;;;;;;;;;14.20;99.90;;;;;;7587282;19;19919;-78
2023/09/24 08:37:21;;;;;;;;;;;14.40;99.90;;;;;;7589988;19;19930;-75
2023/09/24 08:39:54;;;;;;;;;;;14.40;99.90;;;;;;7580869;19;20279;-76
2023/09/24 08:42:26;;;;;;;;;;;14.50;99.90;;;;;;7580777;19;19934;-76
2023/09/24 08:45:09;;;;;;;;;;;14.60;99.90;;;;;;7567857;19;19952;-76
2023/09/24 08:47:42;;;;;;;;;;;14.60;99.90;;;;;;7560394;19;19969;-76
2023/09/24 08:50:15;;;;;;;;;;;14.70;99.90;;;;;;7566191;19;20419;-75
2023/09/24 08:52:48;;;;;;;;;;;14.60;99.90;;;;;;7566846;19;20720;-78
2023/09/24 08:55:20;;;;;;;;;;;14.80;99.90;;;;;;7585998;19;19914;-78
2023/09/24 08:57:52;;;;;;;;;;;15.00;99.90;;;;;;7590566;19;21128;-77
2023/09/24 09:00:25;;;;;;;;;;;15.20;99.90;;;;;;7582688;19;20042;-78
2023/09/24 09:03:00;;;;;;;;;;;15.20;99.90;;;;;;7581743;19;19932;-78
2023/09/24 09:05:37;;;;;;;;;;;15.20;99.90;;;;;;7580151;19;19922;-75
2023/09/24 09:08:10;;;;;;;;;;;15.40;99.90;;;;;;7572103;19;20295;-75
2023/09/24 09:10:42;;;;;;;;;;;15.50;99.90;;;;;;7581067;19;19925;-76
2023/09/24 09:13:17;;;;;;;;;;;15.50;99.90;;;;;;7512429;19;20050;-75
2023/09/24 09:16:00;;;;;;;;;;;15.30;99.90;;;;;;7136957;19;20666;-75
2023/09/24 09:18:35;;;;;;;;;;;15.20;99.90;;;;;;6887470;19;19965;-74
2023/09/24 09:21:07;;;;;;;;;;;15.20;99.90;;;;;;6930922;19;20657;-76
2023/09/24 09:23:42;;;;;;;;;;;15.10;99.90;;;;;;6897332;19;20751;-75
2023/09/24 09:26:14;;;;;;;;;;;15.10;99.90;;;;;;6868182;19;19974;-76
2023/09/24 09:28:49;;;;;;;;;;;15.00;99.90;;;;;;6877622;19;21363;-74
2023/09/24 09:31:21;;;;;;;;;;;15.00;99.90;;;;;;6882273;19;19919;-74
2023/09/24 09:33:54;;;;;;;;;;;15.10;99.90;;;;;;6925817;19;22035;-77
2023/09/24 09:36:27;;;;;;;;;;;15.20;99.90;;;;;;6881119;19;21677;-74
2023/09/24 09:39:02;;;;;;;;;;;15.30;99.90;;;;;;6877828;19;19915;-73
2023/09/24 09:41:36;;;;;;;;;;;15.50;99.90;;;;;;6867991;19;20713;-76
2023/09/24 09:44:08;;;;;;;;;;;15.50;99.90;;;;;;6861222;19;20340;-74
2023/09/24 09:46:43;;;;;;;;;;;15.50;99.90;;;;;;6880949;19;20637;-74
2023/09/24 09:49:19;;;;;;;;;;;15.50;99.90;;;;;;6882563;19;20885;-74
2023/09/24 09:51:54;;;;;;;;;;;15.50;99.90;;;;;;7096828;19;19949;-73
2023/09/24 09:54:33;;;;;;;;;;;15.60;99.90;;;;;;7051015;19;21158;-74
2023/09/24 09:57:06;;;;;;;;;;;15.60;99.90;;;;;;6971679;19;19923;-73
2023/09/24 09:59:39;;;;;;;;;;;15.60;99.90;;;;;;7026825;19;20653;-76
2023/09/24 10:02:13;;;;;;;;;;;15.80;99.90;;;;;;6853355;19;21332;-75
2023/09/24 10:04:46;;;;;;;;;;;15.90;99.90;;;;;;6855923;19;20814;-74
2023/09/24 10:07:18;;;;;;;;;;;16.10;99.90;;;;;;6853001;19;19922;-76
2023/09/24 10:09:51;;;;;;;;;;;16.20;99.90;;;;;;6867586;19;21089;-76
2023/09/24 10:12:34;;;;;;;;;;;16.30;99.90;;;;;;6864174;19;21266;-75
2023/09/24 10:15:23;;;;;;;;;;;16.20;99.90;;;;;;6868645;19;20622;-75
2023/09/24 10:18:11;;;;;;;;;;;16.20;99.90;;;;;;6863490;19;19926;-73
2023/09/24 10:20:49;;;;;;;;;;;16.20;99.90;;;;;;7396729;19;19919;-77
2023/09/24 10:23:31;;;;;;;;;;;16.10;99.90;;;;;;7558088;19;19930;-76
2023/09/24 10:26:06;;;;;;;;;;;16.30;99.90;;;;;;7584671;19;19936;-75
2023/09/24 10:28:46;;;;;;;;;;;16.40;99.90;;;;;;7575765;19;19922;-75
2023/09/24 10:31:24;;;;;;;;;;;16.50;99.90;;;;;;7595444;19;19922;-75
2023/09/24 10:33:57;;;;;;;;;;;16.60;99.90;;;;;;7571560;19;20395;-75
2023/09/24 10:36:31;;;;;;;;;;;16.70;99.90;;;;;;7579625;19;19976;-75
2023/09/24 10:39:07;;;;;;;;;;;16.80;99.90;;;;;;7433534;19;19918;-73
2023/09/24 10:42:18;;;;;;;;;;;16.80;99.90;;;;;;7275847;19;19932;-73
2023/09/24 10:45:17;;;;;;;;;;;16.80;99.90;;;;;;7209187;19;21401;-72
2023/09/24 10:47:50;;;;;;;;;;;16.70;99.90;;;;;;7133818;19;20463;-75
2023/09/24 10:50:23;;;;;;;;;;;16.60;99.90;;;;;;7141441;19;20920;-73
2023/09/24 10:52:58;;;;;;;;;;;16.60;99.90;;;;;;7140458;19;20248;-74
2023/09/24 10:55:33;;;;;;;;;;;16.40;99.90;;;;;;7150588;19;20680;-74
2023/09/24 10:58:12;;;;;;;;;;;16.50;99.90;;;;;;7155577;19;21103;-76
2023/09/24 11:00:49;;;;;;;;;;;16.60;99.90;;;;;;7156999;19;20703;-73
2023/09/24 11:03:22;;;;;;;;;;;16.90;99.90;;;;;;7154728;19;19930;-74
2023/09/24 11:05:56;;;;;;;;;;;17.00;99.90;;;;;;7159535;19;20320;-73
2023/09/24 11:08:31;;;;;;;;;;;17.10;99.90;;;;;;7136301;19;21176;-73
2023/09/24 11:11:03;;;;;;;;;;;17.20;99.90;;;;;;7170901;19;20343;-76
2023/09/24 11:13:36;;;;;;;;;;;17.30;99.90;;;;;;7161769;19;20810;-71
2023/09/24 11:16:09;;;;;;;;;;;17.40;99.90;;;;;;7145624;19;20284;-74
2023/09/24 11:18:51;;;;;;;;;;;17.50;99.90;;;;;;7181173;19;20435;-72
2023/09/24 11:21:31;;;;;;;;;;;17.70;99.90;;;;;;7283973;19;19926;-73
2023/09/24 11:24:21;;;;;;;;;;;17.70;99.70;;;;;;7139599;19;19937;-72
2023/09/24 11:26:57;;;;;;;;;;;17.50;99.80;;;;;;7194927;19;19969;-72
2023/09/24 11:29:31;;;;;;;;;;;18.10;99.70;;;;;;7187598;19;19918;-74
2023/09/24 11:32:05;;;;;;;;;;;19.10;98.80;;;;;;7169773;19;21223;-73
2023/09/24 11:34:39;;;;;;;;;;;20.00;96.00;;;;;;7169549;19;20482;-74
2023/09/24 11:37:12;;;;;;;;;;;20.90;94.00;;;;;;7152348;19;19915;-74
2023/09/24 11:39:45;;;;;;;;;;;21.70;94.00;;;;;;7176943;19;20800;-74
2023/09/24 11:42:18;;;;;;;;;;;22.20;90.60;;;;;;7167878;19;19914;-77
2023/09/24 11:44:51;;;;;;;;;;;22.30;86.90;;;;;;7159386;19;20486;-75
2023/09/24 11:47:27;;;;;;;;;;;23.00;88.00;;;;;;7232216;19;20118;-77
2023/09/24 11:50:12;;;;;;;;;;;23.60;82.50;;;;;;7271354;19;20482;-76
2023/09/24 11:52:46;;;;;;;;;;;23.50;80.40;;;;;;7427442;19;21406;-75
2023/09/24 11:55:21;;;;;;;;;;;23.30;77.80;;;;;;7315670;19;20803;-75
2023/09/24 11:57:54;;;;;;;;;;;23.30;76.10;;;;;;7180822;19;20524;-76
2023/09/24 12:00:27;;;;;;;;;;;23.60;77.00;;;;;;7229014;19;19914;-78
2023/09/24 12:03:00;;;;;;;;;;;24.00;76.50;;;;;;7219589;19;20860;-78
2023/09/24 12:05:36;;;;;;;;;;;24.10;76.00;;;;;;7266427;19;20343;-77
2023/09/24 12:08:08;;;;;;;;;;;24.30;75.50;;;;;;7221328;19;21277;-76
2023/09/24 12:10:42;;;;;;;;;;;24.70;73.70;;;;;;7209579;19;20181;-76
2023/09/24 12:13:15;;;;;;;;;;;25.10;73.50;;;;;;7215626;19;20235;-77
2023/09/24 12:15:49;;;;;;;;;;;25.30;72.20;;;;;;7227794;19;21225;-76
2023/09/24 12:18:21;;;;;;;;;;;25.20;70.10;;;;;;7226288;19;20398;-77
2023/09/24 12:20:56;;;;;;;;;;;24.10;71.40;;;;;;7323821;19;19936;-76
2023/09/24 12:23:29;;;;;;;;;;;23.30;74.40;;;;;;7579110;19;20284;-76
2023/09/24 12:26:02;;;;;;;;;;;23.90;72.20;;;;;;7253720;19;20898;-75
2023/09/24 12:28:35;;;;;;;;;;;24.50;69.30;;;;;;7322936;19;20642;-75
2023/09/24 12:31:11;;;;;;;;;;;24.80;65.90;;;;;;7244184;19;20250;-76
2023/09/24 12:33:44;;;;;;;;;;;25.20;65.30;;;;;;7162416;19;20418;-75
2023/09/24 12:36:17;;;;;;;;;;;25.40;64.20;;;;;;7217787;19;22025;-75
2023/09/24 12:38:50;;;;;;;;;;;25.10;65.60;;;;;;7196964;19;19945;-76
2023/09/24 12:41:23;;;;;;;;;;;25.50;64.10;;;;;;7232339;19;20287;-76
2023/09/24 12:43:56;;;;;;;;;;;25.90;62.80;;;;;;7221860;19;19967;-76
2023/09/24 12:46:29;;;;;;;;;;;25.40;64.10;;;;;;7210273;19;20005;-76
2023/09/24 12:49:02;;;;;;;;;;;25.90;64.30;;;;;;7199210;19;20582;-76
2023/09/24 12:51:35;;;;;;;;;;;26.40;61.40;;;;;;7181073;19;19921;-73
2023/09/24 12:54:08;;;;;;;;;;;26.80;62.40;;;;;;7204033;19;20255;-73
2023/09/24 12:56:41;;;;;;;;;;;26.70;59.20;;;;;;7170948;19;20262;-74
2023/09/24 12:59:14;;;;;;;;;;;26.20;60.70;;;;;;7176540;19;20817;-73
2023/09/24 13:01:47;;;;;;;;;;;24.10;63.80;;;;;;7207228;19;19917;-73
2023/09/24 13:04:21;;;;;;;;;;;24.00;66.10;;;;;;7198296;19;20596;-74
2023/09/24 13:06:55;;;;;;;;;;;24.10;64.00;;;;;;7310409;19;20719;-74
2023/09/24 13:09:28;;;;;;;;;;;23.90;64.90;;;;;;7193417;19;20225;-73
2023/09/24 13:12:01;;;;;;;;;;;23.40;66.30;;;;;;7122054;19;19924;-73
2023/09/24 13:14:35;;;;;;;;;;;22.70;68.10;;;;;;7196077;19;20502;-77
2023/09/24 13:17:08;;;;;;;;;;;21.90;68.90;;;;;;7305573;19;20688;-73
2023/09/24 13:19:41;;;;;;;;;;;22.20;69.80;;;;;;7287278;19;21070;-74
2023/09/24 13:22:14;;;;;;;;;;;23.80;67.60;;;;;;7316231;19;19926;-74
2023/09/24 13:24:47;;;;;;;;;;;25.10;64.70;;;;;;7317221;19;20619;-72
2023/09/24 13:27:22;;;;;;;;;;;;;;;;;;7309347;19;20127;-73
2023/09/24 13:29:54;;;;;;;;;;;26.00;62.30;;;;;;7325941;19;20131;-75
2023/09/24 13:32:28;;;;;;;;;;;27.00;58.80;;;;;;7321587;19;21193;-74
2023/09/24 13:35:03;;;;;;;;;;;26.90;59.90;;;;;;7448403;19;19940;-74
2023/09/24 13:37:37;;;;;;;;;;;27.50;60.10;;;;;;7470221;19;19934;-73
2023/09/24 13:40:11;;;;;;;;;;;28.10;60.10;;;;;;7440994;19;19918;-74
2023/09/24 13:42:59;;;;;;;;;;;28.30;56.20;;;;;;7442513;19;19939;-77
2023/09/24 13:45:32;;;;;;;;;;;28.50;56.40;;;;;;7454514;19;19919;-74
2023/09/24 13:48:05;;;;;;;;;;;;;;;;;;7439297;19;19919;-73
2023/09/24 13:50:37;;;;;;;;;;;28.50;55.90;;;;;;7441225;19;19923;-74
2023/09/24 13:53:10;;;;;;;;;;;27.60;54.30;;;;;;7396820;19;19923;-74
2023/09/24 13:55:43;;;;;;;;;;;25.70;57.90;;;;;;7350879;19;19930;-75
2023/09/24 13:58:16;;;;;;;;;;;26.00;60.00;;;;;;7377119;19;19925;-73
2023/09/24 14:00:51;;;;;;;;;;;25.80;59.60;;;;;;7424597;19;19927;-73
2023/09/24 14:03:24;;;;;;;;;;;24.50;60.80;;;;;;7378090;19;19926;-76
2023/09/24 14:05:58;;;;;;;;;;;23.40;62.50;;;;;;7433375;19;20117;-74
2023/09/24 14:14:17;;;;;;;;;;;22.40;66.10;;;;;;7328693;19;20700;-73
2023/09/24 14:16:49;;;;;;;;;;;22.20;67.70;;;;;;7538965;19;19915;-75
2023/09/24 14:19:22;;;;;;;;;;;23.40;68.40;;;;;;7614964;19;19922;-78
2023/09/24 14:21:54;;;;;;;;;;;24.20;64.20;;;;;;7617267;19;19923;-77
2023/09/24 14:24:26;;;;;;;;;;;25.80;61.60;;;;;;7615244;19;19923;-76
2023/09/24 14:27:00;;;;;;;;;;;25.50;60.30;;;;;;7614306;19;19925;-75
2023/09/24 14:29:33;;;;;;;;;;;24.30;63.00;;;;;;7622499;19;19919;-78
2023/09/24 14:32:06;;;;;;;;;;;25.40;62.20;;;;;;7603629;19;19914;-73
2023/09/24 14:34:38;;;;;;;;;;;25.20;60.70;;;;;;7390953;19;20137;-75
2023/09/24 14:37:10;;;;;;;;;;;24.50;60.00;;;;;;7278983;19;19919;-75
2023/09/24 14:39:44;;;;;;;;;;;23.70;62.50;;;;;;7270604;19;19919;-75
2023/09/24 14:42:17;;;;;;;;;;;23.90;61.90;;;;;;7267184;19;20226;-75
2023/09/24 14:44:49;;;;;;;;;;;23.20;62.90;;;;;;7241222;19;19926;-74
2023/09/24 14:47:24;;;;;;;;;;;22.40;63.70;;;;;;7277270;19;20307;-75
2023/09/24 14:49:59;;;;;;;;;;;21.90;65.00;;;;;;7325142;19;19934;-76
2023/09/24 14:52:33;;;;;;;;;;;21.40;66.20;;;;;;7265912;19;20236;-74
2023/09/24 14:55:06;;;;;;;;;;;21.40;66.80;;;;;;7283358;19;19923;-74
2023/09/24 14:57:39;;;;;;;;;;;21.60;68.20;;;;;;7262015;19;19925;-76
2023/09/24 15:00:13;;;;;;;;;;;21.40;68.10;;;;;;7280995;19;21121;-74
2023/09/24 15:02:48;;;;;;;;;;;21.00;66.80;;;;;;7263692;19;19918;-72
2023/09/24 15:05:23;;;;;;;;;;;20.60;69.20;;;;;;7283435;19;19922;-76